Time;durP1;ratioP1;P1;durP2;ratioP2;P2;SDS_P1;SDS_P2;PMS_P1;PMS_P2;Temp;Humidity;BMP_temperature;BMP_pressure;BME280_temperature;BME280_humidity;BME280_pressure;Samples;Min_cycle;Max_cycle;Signal;HPM_P1;HPM_P2
2023/06/12 00:04:10;;;;;;;3.58;2.60;;;;;;;21.14;59.65;96398.44;10342276;28;20117;-31
2023/06/12 00:09:10;;;;;;;3.20;2.90;;;;;;;21.05;59.79;96403.69;10341392;28;20042;-31
2023/06/12 00:14:10;;;;;;;3.20;2.80;;;;;;;20.92;59.75;96398.78;10341227;28;20125;-32
2023/06/12 00:19:11;;;;;;;2.80;2.60;;;;;;;20.87;60.20;96398.88;10362387;28;20041;-31
2023/06/12 00:24:11;;;;;;;2.90;2.70;;;;;;;20.84;60.21;96401.44;10340341;28;20800;-31
2023/06/12 00:29:12;;;;;;;3.47;2.50;;;;;;;20.83;59.91;96391.25;10341109;28;20037;-31
2023/06/12 00:34:12;;;;;;;2.53;2.03;;;;;;;20.78;60.17;96393.88;10345023;28;20289;-31
2023/06/12 00:39:12;;;;;;;3.37;3.07;;;;;;;21.06;59.95;96404.53;10337653;28;20030;-31
2023/06/12 00:44:14;;;;;;;3.05;2.70;;;;;;;21.12;59.47;96400.19;10327967;28;20364;-31
2023/06/12 00:49:14;;;;;;;2.43;2.23;;;;;;;21.00;59.48;96394.44;10356466;28;20556;-31
2023/06/12 00:54:15;;;;;;;2.80;2.55;;;;;;;20.92;59.84;96396.25;10332504;28;20049;-31
2023/06/12 00:59:16;;;;;;;2.37;2.17;;;;;;;20.85;59.88;96385.28;10347858;28;20091;-31
2023/06/12 01:04:17;;;;;;;2.45;2.25;;;;;;;20.74;59.80;96391.41;10339345;28;20045;-31
2023/06/12 01:09:28;;;;;;;2.35;1.95;;;;;;;20.68;59.23;96386.38;10337514;28;20402;-31
2023/06/12 01:14:30;;;;;;;2.45;1.90;;;;;;;20.74;59.02;96379.53;10313761;28;20402;-31
2023/06/12 01:19:30;;;;;;;3.00;1.90;;;;;;;20.91;58.31;96385.25;10347455;28;20037;-31
2023/06/12 01:25:04;;;;;;;1.77;1.67;;;;;;;20.79;58.05;96380.28;10341722;28;20033;-32
2023/06/12 01:30:40;;;;;;;1.85;1.70;;;;;;;20.69;57.96;96383.81;10337903;28;20185;-31
2023/06/12 01:35:43;;;;;;;2.45;2.25;;;;;;;20.61;58.34;96378.00;10339967;28;20152;-31
2023/06/12 01:40:46;;;;;;;2.17;1.98;;;;;;;20.60;57.88;96373.78;10338412;28;20038;-32
2023/06/12 01:45:46;;;;;;;1.65;1.50;;;;;;;20.57;57.54;96372.97;10338377;28;20065;-31
2023/06/12 01:50:47;;;;;;;2.25;2.05;;;;;;;20.55;57.84;96367.09;10316043;28;20129;-32
2023/06/12 01:55:49;;;;;;;2.30;2.10;;;;;;;20.71;57.38;96371.09;10342955;28;20034;-32
2023/06/12 02:00:53;;;;;;;3.47;1.98;;;;;;;20.77;56.80;96371.84;10320662;28;20054;-32
2023/06/12 02:05:56;;;;;;;2.47;2.05;;;;;;;20.62;56.97;96366.97;10330060;28;20057;-32
2023/06/12 02:10:57;;;;;;;2.30;2.10;;;;;;;20.58;57.79;96370.44;10333183;28;20031;-32
2023/06/12 02:15:57;;;;;;;2.53;2.00;;;;;;;20.54;57.05;96368.78;10351874;28;20038;-31
2023/06/12 02:21:02;;;;;;;2.38;2.17;;;;;;;20.52;57.10;96370.50;10318495;28;20717;-31
2023/06/12 02:26:03;;;;;;;2.20;2.00;;;;;;;20.52;56.86;96383.22;10347660;28;20044;-32
2023/06/12 02:31:04;;;;;;;2.20;2.00;;;;;;;20.50;56.85;96382.41;10340145;28;20041;-33
2023/06/12 02:36:07;;;;;;;1.92;1.83;;;;;;;20.72;56.56;96378.69;10340182;28;20502;-32
2023/06/12 02:41:11;;;;;;;2.45;2.22;;;;;;;20.67;56.13;96377.94;10326763;28;20089;-31
2023/06/12 02:46:12;;;;;;;2.25;1.92;;;;;;;20.51;56.42;96362.88;10318827;28;20039;-32
2023/06/12 02:51:13;;;;;;;2.53;2.33;;;;;;;20.51;56.47;96384.09;10336452;28;20069;-31
2023/06/12 02:56:14;;;;;;;2.47;2.25;;;;;;;20.47;56.15;96374.78;10336594;28;20525;-31
2023/06/12 03:01:16;;;;;;;2.35;2.15;;;;;;;20.45;56.58;96370.63;10348385;28;20037;-31
2023/06/12 03:06:23;;;;;;;2.65;2.45;;;;;;;20.43;56.33;96374.84;10329678;28;20034;-31
2023/06/12 03:11:24;;;;;;;3.33;2.50;;;;;;;20.45;56.31;96384.16;10325970;28;20454;-31
2023/06/12 03:16:24;;;;;;;3.00;2.70;;;;;;;20.70;55.89;96389.75;10355152;28;20034;-31
2023/06/12 03:21:26;;;;;;;2.55;2.35;;;;;;;20.62;55.70;96387.31;10332963;28;20053;-31
2023/06/12 03:26:27;;;;;;;2.65;2.45;;;;;;;20.53;55.73;96387.44;10338385;28;20026;-31
2023/06/12 03:31:28;;;;;;;2.90;2.60;;;;;;;20.45;55.94;96384.16;10347758;28;20040;-32
2023/06/12 03:36:32;;;;;;;2.60;2.40;;;;;;;20.44;55.80;96395.19;10333036;28;20026;-31
2023/06/12 03:41:33;;;;;;;3.08;2.83;;;;;;;20.43;55.90;96400.28;10343541;28;20026;-31
2023/06/12 03:46:35;;;;;;;2.75;2.55;;;;;;;20.43;56.46;96406.22;10340749;28;20510;-31
2023/06/12 03:51:37;;;;;;;5.45;2.65;;;;;;;20.40;55.97;96406.25;10330803;28;20037;-31
2023/06/12 03:56:37;;;;;;;4.45;4.05;;;;;;;20.80;54.63;96404.88;10320882;28;20120;-31
2023/06/12 04:01:38;;;;;;;5.43;3.60;;;;;;;20.73;51.17;96418.53;10325725;28;20033;-31
2023/06/12 04:06:40;;;;;;;4.05;3.65;;;;;;;20.68;50.60;96424.53;10326305;28;20033;-31
2023/06/12 04:11:42;;;;;;;3.80;3.00;;;;;;;20.60;50.51;96421.25;10361200;28;20025;-32
2023/06/12 04:16:43;;;;;;;4.70;3.60;;;;;;;20.54;50.12;96424.72;10355903;28;20122;-31
2023/06/12 04:21:43;;;;;;;5.80;3.83;;;;;;;20.46;50.52;96416.34;10360620;28;20491;-31
2023/06/12 04:26:46;;;;;;;3.93;3.53;;;;;;;20.48;51.15;96429.06;10335616;28;20296;-31
2023/06/12 04:31:49;;;;;;;5.03;3.78;;;;;;;20.53;51.10;96425.59;10354063;28;20036;-31
2023/06/12 04:36:52;;;;;;;4.13;3.83;;;;;;;20.60;50.97;96419.56;10332460;28;20057;-31
2023/06/12 04:41:53;;;;;;;5.07;3.50;;;;;;;20.56;51.85;96423.00;10328787;28;20096;-31
2023/06/12 04:46:53;;;;;;;4.10;3.70;;;;;;;20.58;52.10;96418.75;10329645;28;20034;-32
2023/06/12 04:51:54;;;;;;;4.83;3.80;;;;;;;20.53;52.52;96412.03;10330749;28;20030;-31
2023/06/12 04:56:54;;;;;;;3.92;3.63;;;;;;;20.50;54.16;96407.84;10343524;28;20023;-31
2023/06/12 05:01:56;;;;;;;3.95;3.00;;;;;;;20.42;54.95;96403.69;10347519;28;20040;-32
2023/06/12 05:06:57;;;;;;;3.90;2.60;;;;;;;20.37;55.26;96407.16;10359952;28;20034;-31
2023/06/12 05:12:00;;;;;;;3.28;2.80;;;;;;;20.38;55.14;96400.34;10335926;28;20392;-31
2023/06/12 05:17:01;;;;;;;3.78;3.20;;;;;;;20.61;54.38;96410.22;10329733;28;20121;-31
2023/06/12 05:22:02;;;;;;;4.85;3.25;;;;;;;20.69;54.58;96405.88;10342756;28;20128;-31
2023/06/12 05:27:06;;;;;;;8.98;3.80;;;;;;;20.56;54.46;96409.47;10339147;28;20497;-32
2023/06/12 05:32:08;;;;;;;5.18;3.00;;;;;;;20.50;55.05;96415.47;10320862;28;20416;-31
2023/06/12 05:37:09;;;;;;;5.55;3.20;;;;;;;20.46;55.07;96418.88;10329131;28;20432;-31
2023/06/12 05:42:10;;;;;;;3.08;2.78;;;;;;;20.44;55.43;96414.69;10323489;28;20060;-31
2023/06/12 05:47:12;;;;;;;3.25;2.95;;;;;;;20.45;55.47;96416.38;10337658;28;20030;-31
2023/06/12 05:52:13;;;;;;;3.38;3.08;;;;;;;20.43;55.77;96415.53;10328575;28;20129;-31
2023/06/12 05:57:15;;;;;;;3.88;3.15;;;;;;;20.62;55.41;96407.66;10323159;28;20567;-31
2023/06/12 06:02:17;;;;;;;2.80;2.60;;;;;;;20.78;55.06;96409.13;10332590;28;20033;-32
2023/06/12 06:07:17;;;;;;;3.03;2.83;;;;;;;20.63;55.25;96413.59;10334196;28;20034;-31
2023/06/12 06:12:18;;;;;;;3.30;3.00;;;;;;;20.55;55.77;96410.31;10327617;28;20645;-31
2023/06/12 06:17:20;;;;;;;2.65;2.45;;;;;;;20.50;55.88;96406.97;10319607;28;20112;-31
2023/06/12 06:22:24;;;;;;;3.60;2.65;;;;;;;20.50;55.59;96406.97;10330929;28;20128;-31
2023/06/12 06:27:24;;;;;;;4.07;2.75;;;;;;;20.55;55.77;96411.16;10339931;28;20026;-31
2023/06/12 06:32:25;;;;;;;3.88;2.60;;;;;;;20.56;55.81;96407.75;10332139;28;20025;-31
2023/06/12 06:37:26;;;;;;;2.92;2.60;;;;;;;20.68;57.15;96411.81;10347494;28;20379;-34
2023/06/12 06:42:29;;;;;;;2.75;2.50;;;;;;;20.85;55.96;96420.91;10322168;28;20497;-31
2023/06/12 06:47:38;;;;;;;3.22;2.92;;;;;;;20.82;55.75;96415.84;10332114;28;20120;-31
2023/06/12 06:52:41;;;;;;;2.90;2.60;;;;;;;20.71;55.86;96425.34;10342874;28;20041;-32
2023/06/12 06:57:42;;;;;;;2.80;2.60;;;;;;;20.65;56.05;96422.06;10348591;28;20072;-31
2023/06/12 07:02:45;;;;;;;2.67;2.47;;;;;;;20.61;56.22;96416.16;10326303;28;20026;-32
2023/06/12 07:07:49;;;;;;;2.63;2.42;;;;;;;20.60;56.56;96409.41;10327401;28;20082;-31
2023/06/12 07:12:56;;;;;;;2.78;2.40;;;;;;;20.60;56.62;96404.31;10318157;28;20501;-32
2023/06/12 07:17:58;;;;;;;3.40;2.83;;;;;;;20.66;57.34;96418.63;10316804;28;20494;-31
2023/06/12 07:22:59;;;;;;;2.85;2.58;;;;;;;20.87;56.71;96398.03;10347926;28;20037;-30
2023/06/12 07:27:59;;;;;;;2.80;2.60;;;;;;;20.89;56.21;96398.84;10350810;28;20046;-31
2023/06/12 07:33:01;;;;;;;2.95;2.67;;;;;;;20.76;56.21;96398.16;10332309;28;20061;-32
2023/06/12 07:38:02;;;;;;;2.83;2.47;;;;;;;20.69;56.41;96388.06;10308845;28;20085;-32
2023/06/12 07:43:02;;;;;;;4.75;2.40;;;;;;;20.64;56.70;96403.38;10326898;28;20039;-32
2023/06/12 07:48:03;;;;;;;3.08;2.25;;;;;;;20.65;56.78;96387.25;10332773;28;20034;-32
2023/06/12 07:53:08;;;;;;;2.72;2.42;;;;;;;20.64;57.08;96384.75;10328873;28;20046;-31
2023/06/12 07:58:09;;;;;;;3.35;2.67;;;;;;;20.61;56.92;96380.56;10334364;28;20022;-31
2023/06/12 08:03:13;;;;;;;2.92;2.63;;;;;;;20.84;57.27;96388.72;10347032;28;20120;-31
2023/06/12 08:08:17;;;;;;;2.70;2.50;;;;;;;20.94;56.96;96379.25;10328225;28;20046;-31
2023/06/12 08:13:17;;;;;;;2.33;2.13;;;;;;;20.89;57.15;96381.84;10341496;28;20038;-32
2023/06/12 08:18:19;;;;;;;3.22;2.83;;;;;;;20.78;56.85;96383.69;10338785;28;20285;-32
2023/06/12 08:23:20;;;;;;;2.65;2.45;;;;;;;20.73;56.90;96380.38;10334782;28;20034;-31
2023/06/12 08:28:20;;;;;;;2.42;2.22;;;;;;;20.72;57.31;96383.78;10353333;28;20038;-31
2023/06/12 08:33:21;;;;;;;3.13;2.80;;;;;;;20.69;56.99;96378.75;10342878;28;20498;-31
2023/06/12 08:38:22;;;;;;;2.97;2.77;;;;;;;20.67;57.07;96365.22;10343979;28;20026;-31
2023/06/12 08:43:23;;;;;;;2.50;2.30;;;;;;;20.74;59.60;96365.94;10336439;28;20402;-31
2023/06/12 08:48:26;;;;;;;2.97;2.65;;;;;;;20.93;57.53;96363.16;10340015;28;20550;-32
2023/06/12 08:53:27;;;;;;;2.33;2.13;;;;;;;20.97;56.90;96363.94;10354995;28;20033;-32
2023/06/12 08:58:28;;;;;;;2.55;2.35;;;;;;;20.84;57.24;96358.16;10331933;28;20030;-32
2023/06/12 09:03:31;;;;;;;2.03;1.93;;;;;;;20.76;57.25;96354.91;10343975;28;20524;-31
2023/06/12 09:08:34;;;;;;;2.97;2.40;;;;;;;20.70;57.30;96356.66;10333922;28;20026;-31
2023/06/12 09:13:42;;;;;;;2.78;2.58;;;;;;;20.71;57.34;96356.66;10347558;28;20026;-32
2023/06/12 09:18:53;;;;;;;2.90;2.67;;;;;;;20.69;57.40;96355.00;10339209;28;20033;-31
2023/06/12 09:23:55;;;;;;;2.75;2.53;;;;;;;20.66;57.68;96353.34;10344213;28;20417;-31
2023/06/12 09:28:56;;;;;;;2.40;2.20;;;;;;;20.88;58.17;96353.91;10347748;28;20026;-31
2023/06/12 09:33:57;;;;;;;2.50;2.30;;;;;;;21.00;57.87;96348.63;10346569;28;20032;-32
2023/06/12 09:38:57;;;;;;;2.40;2.20;;;;;;;20.90;57.98;96358.09;10330497;28;20034;-32
2023/06/12 09:44:02;;;;;;;2.47;2.07;;;;;;;20.80;57.46;96356.53;10338016;28;20465;-32
2023/06/12 09:49:03;;;;;;;2.83;2.20;;;;;;;20.77;57.67;96353.19;10329834;28;20368;-32
2023/06/12 09:54:05;;;;;;;2.60;2.40;;;;;;;20.72;57.58;96348.16;10344742;28;20030;-32
2023/06/12 09:59:08;;;;;;;2.63;2.20;;;;;;;20.69;57.90;96348.22;10330089;28;20038;-31
2023/06/12 10:04:13;;;;;;;2.42;2.22;;;;;;;20.68;57.66;96351.63;10345071;28;20116;-31
2023/06/12 10:09:13;;;;;;;2.47;2.13;;;;;;;20.75;59.44;96345.59;10336106;28;20498;-31
2023/06/12 10:14:16;;;;;;;2.03;1.83;;;;;;;20.95;58.34;96341.06;10330636;28;20034;-31
2023/06/12 10:19:16;;;;;;;1.70;1.60;;;;;;;20.99;57.81;96335.03;10359781;28;20042;-32
2023/06/12 10:24:16;;;;;;;1.80;1.70;;;;;;;20.87;58.07;96332.69;10341736;28;20461;-32
2023/06/12 10:29:26;;;;;;;2.10;1.93;;;;;;;20.81;57.79;96331.94;10331611;28;20502;-31
2023/06/12 10:34:27;;;;;;;2.40;2.20;;;;;;;20.75;58.46;96332.88;10349265;28;20366;-31
2023/06/12 10:39:28;;;;;;;2.20;2.00;;;;;;;20.80;58.20;96336.16;10343381;28;20041;-32
2023/06/12 10:44:49;;;;;;;2.22;2.03;;;;;;;20.81;58.10;96332.75;10327713;28;20037;-31
2023/06/12 10:49:58;;;;;;;2.58;2.38;;;;;;;20.81;58.01;96324.31;10352996;28;20042;-31
2023/06/12 10:55:19;;;;;;;2.30;2.10;;;;;;;20.98;59.77;96302.00;10344299;28;20045;-32
2023/06/12 11:00:22;;;;;;;9.57;3.08;;;;;;;21.09;58.55;96300.09;10361377;28;20472;-31
2023/06/12 11:05:22;;;;;;;4.00;2.25;;;;;;;20.97;57.80;96300.31;10351293;28;20044;-31
2023/06/12 11:10:23;;;;;;;12.02;2.53;;;;;;;20.91;57.78;96306.34;10374459;28;20048;-31
2023/06/12 11:15:24;;;;;;;10.27;2.60;;;;;;;20.88;58.06;96293.66;10364381;28;20030;-32
2023/06/12 11:20:26;;;;;;;7.07;2.50;;;;;;;20.87;57.98;96296.25;10380178;28;20041;-31
2023/06/12 11:25:26;;;;;;;6.38;2.17;;;;;;;20.85;58.42;96285.19;10364401;28;20557;-31
2023/06/12 11:30:29;;;;;;;8.37;2.40;;;;;;;20.85;58.05;96283.50;10364251;28;20041;-32
2023/06/12 11:35:29;;;;;;;6.07;2.13;;;;;;;20.93;59.31;96278.31;10339896;28;20026;-31
2023/06/12 11:40:29;;;;;;;5.80;2.78;;;;;;;21.07;58.70;96269.56;10367347;28;20026;-31
2023/06/12 11:45:31;;;;;;;5.87;2.57;;;;;;;21.01;57.83;96263.75;10354059;28;20030;-32
2023/06/12 11:50:34;;;;;;;6.72;2.13;;;;;;;20.93;57.86;96266.44;10337594;28;20042;-31
2023/06/12 11:55:36;;;;;;;4.68;2.30;;;;;;;20.88;58.21;96255.50;10338190;28;20094;-32
2023/06/12 12:00:39;;;;;;;2.95;2.00;;;;;;;20.88;58.13;96262.31;10334190;28;20401;-32
2023/06/12 12:05:40;;;;;;;6.15;2.80;;;;;;;20.88;58.81;96257.22;10346065;28;20120;-32
2023/06/12 12:10:41;;;;;;;7.57;3.47;;;;;;;20.87;58.38;96247.91;10357299;28;20452;-31
2023/06/12 12:15:41;;;;;;;4.32;2.83;;;;;;;20.85;58.54;96242.81;10348401;28;20034;-32
2023/06/12 12:20:42;;;;;;;6.10;2.87;;;;;;;21.01;59.42;96238.31;10353735;28;20121;-31
2023/06/12 12:25:43;;;;;;;6.18;3.28;;;;;;;21.14;58.67;96232.97;10360055;28;20677;-31
2023/06/12 12:30:44;;;;;;;6.13;3.33;;;;;;;21.03;58.33;96242.50;10343363;28;20105;-32
2023/06/12 12:35:45;;;;;;;8.13;4.63;;;;;;;20.94;58.44;96237.59;10351296;28;20033;-31
2023/06/12 12:40:45;;;;;;;18.65;5.30;;;;;;;20.99;60.28;96238.31;10335530;28;20443;-31
2023/06/12 12:45:45;;;;;;;20.03;6.70;;;;;;;20.92;59.55;96231.69;10340074;28;20049;-31
2023/06/12 12:50:46;;;;;;;15.83;5.10;;;;;;;20.91;58.96;96229.16;10348798;28;20030;-31
2023/06/12 12:55:46;;;;;;;16.40;4.70;;;;;;;20.85;59.07;96222.44;10360902;28;20029;-31
2023/06/12 13:00:46;;;;;;;11.23;3.87;;;;;;;20.87;59.10;96218.19;10351520;28;20433;-32
2023/06/12 13:05:47;;;;;;;11.07;4.87;;;;;;;21.08;59.71;96224.63;10352278;28;20088;-31
2023/06/12 13:10:47;;;;;;;18.43;4.50;;;;;;;21.19;59.33;96212.53;10349697;28;20046;-31
2023/06/12 13:15:47;;;;;;;11.47;4.10;;;;;;;21.07;58.86;96216.13;10346338;28;20292;-32
2023/06/12 13:20:48;;;;;;;11.67;4.30;;;;;;;21.03;59.15;96216.22;10339405;28;20113;-31
2023/06/12 13:25:49;;;;;;;7.45;4.30;;;;;;;20.99;59.03;96209.50;10345209;28;20113;-32
2023/06/12 13:30:50;;;;;;;13.05;4.80;;;;;;;20.96;58.84;96205.31;10338293;28;20486;-31
2023/06/12 13:35:51;;;;;;;10.07;5.13;;;;;;;20.95;58.89;96198.53;10338270;28;20033;-33
2023/06/12 13:40:51;;;;;;;5.35;3.80;;;;;;;20.94;59.14;96199.41;10335577;28;20486;-31
2023/06/12 13:45:55;;;;;;;5.60;3.53;;;;;;;20.95;59.53;96198.53;10332572;28;20036;-31
2023/06/12 13:50:58;;;;;;;9.15;4.45;;;;;;;21.12;59.77;96181.25;10343450;28;20034;-31
2023/06/12 13:55:59;;;;;;;8.23;5.03;;;;;;;21.23;59.23;96193.78;10330772;28;20113;-31
2023/06/12 14:00:59;;;;;;;9.13;5.30;;;;;;;21.09;58.84;96180.47;10335833;28;20042;-32
2023/06/12 14:05:59;;;;;;;12.07;5.00;;;;;;;21.03;59.14;96171.25;10343062;28;20037;-31
2023/06/12 14:11:00;;;;;;;6.30;4.40;;;;;;;20.99;59.04;96163.69;10342734;28;20549;-31
2023/06/12 14:16:02;;;;;;;52.37;9.57;;;;;;;20.97;60.30;96168.81;10360974;28;20281;-31
2023/06/12 14:21:07;;;;;;;37.03;7.97;;;;;;;21.00;60.07;96170.47;10336643;28;20380;-31
2023/06/12 14:26:07;;;;;;;17.48;5.80;;;;;;;20.97;60.68;96156.09;10334024;28;20072;-31
2023/06/12 14:31:09;;;;;;;18.57;5.77;;;;;;;21.06;61.43;96161.00;10337620;28;20046;-32
2023/06/12 14:36:09;;;;;;;25.83;6.07;;;;;;;21.23;61.12;96158.16;10350803;28;20034;-31
2023/06/12 14:41:10;;;;;;;18.80;5.03;;;;;;;21.24;60.48;96155.53;10336270;28;20049;-31
2023/06/12 14:46:10;;;;;;;23.92;6.70;;;;;;;21.25;60.65;96146.22;10338982;28;20026;-32
2023/06/12 14:51:12;;;;;;;26.17;6.03;;;;;;;21.29;60.81;96132.56;10341633;28;20456;-31
2023/06/12 14:56:13;;;;;;;17.60;4.72;;;;;;;21.33;60.83;96139.25;10334529;28;20052;-41
2023/06/12 15:01:13;;;;;;;22.97;6.73;;;;;;;21.37;60.89;96131.53;10340953;28;20046;-32
2023/06/12 15:06:14;;;;;;;15.60;5.70;;;;;;;21.43;60.39;96131.41;10336272;28;20344;-31
2023/06/12 15:11:14;;;;;;;14.40;4.47;;;;;;;21.49;60.94;96126.16;10351523;28;20076;-33
2023/06/12 15:16:15;;;;;;;13.10;4.40;;;;;;;21.54;60.77;96124.38;10335538;28;20054;-31
2023/06/12 15:21:18;;;;;;;11.27;3.90;;;;;;;21.59;61.34;96121.72;10344330;28;20510;-31
2023/06/12 15:26:18;;;;;;;12.90;5.13;;;;;;;21.54;60.66;96124.38;10339418;28;20046;-31
2023/06/12 15:31:19;;;;;;;14.90;4.33;;;;;;;21.47;61.00;96127.91;10334532;28;20517;-31
2023/06/12 15:36:20;;;;;;;10.55;3.85;;;;;;;21.39;60.83;96114.50;10334352;28;20277;-32
2023/06/12 15:41:20;;;;;;;7.37;4.37;;;;;;;21.35;60.71;96123.09;10334719;28;20464;-32
2023/06/12 15:46:21;;;;;;;7.53;3.60;;;;;;;21.32;60.90;96112.94;10325930;28;20066;-32
2023/06/12 15:51:23;;;;;;;9.37;4.03;;;;;;;21.28;60.75;96106.25;10329953;28;20042;-33
2023/06/12 15:56:25;;;;;;;9.75;3.72;;;;;;;21.26;60.49;96100.38;10334113;28;20285;-32
2023/06/12 16:01:26;;;;;;;6.20;4.07;;;;;;;21.28;61.21;96105.41;10333403;28;20406;-32
2023/06/12 16:06:26;;;;;;;5.00;3.80;;;;;;;21.42;60.95;96104.28;10329822;28;20045;-32
2023/06/12 16:11:27;;;;;;;5.30;3.60;;;;;;;21.41;60.20;96106.84;10348323;28;20038;-32
2023/06/12 16:16:28;;;;;;;9.50;3.90;;;;;;;21.31;60.25;96116.38;10332476;28;20050;-32
2023/06/12 16:21:28;;;;;;;20.57;6.03;;;;;;;21.34;61.46;96095.94;10334893;28;20117;-31
2023/06/12 16:26:29;;;;;;;9.75;3.25;;;;;;;21.33;60.88;96094.28;10356789;28;20061;-32
2023/06/12 16:31:29;;;;;;;10.70;4.07;;;;;;;21.30;60.82;96099.41;10349927;28;20117;-31
2023/06/12 16:36:29;;;;;;;11.27;3.30;;;;;;;21.25;60.78;96068.13;10346082;28;20401;-31
2023/06/12 16:41:30;;;;;;;8.73;3.67;;;;;;;21.21;60.50;96086.06;10332178;28;20434;-32
2023/06/12 16:46:30;;;;;;;6.87;3.07;;;;;;;21.22;60.48;96088.56;10345368;28;20048;-31
2023/06/12 16:51:30;;;;;;;13.27;5.47;;;;;;;21.40;60.09;96089.88;10346888;28;20301;-32
2023/06/12 16:56:32;;;;;;;14.50;4.40;;;;;;;21.41;59.81;96087.28;10331640;28;20287;-32
2023/06/12 17:01:32;;;;;;;7.88;3.47;;;;;;;21.25;59.54;96091.06;10347407;28;20065;-31
2023/06/12 17:06:35;;;;;;;10.20;3.83;;;;;;;21.19;59.48;96085.22;10338887;28;20121;-32
2023/06/12 17:11:35;;;;;;;11.07;4.15;;;;;;;21.17;59.80;96084.44;10339937;28;20066;-32
2023/06/12 17:16:35;;;;;;;8.27;3.97;;;;;;;21.15;59.77;96089.53;10346561;28;20030;-31
2023/06/12 17:21:36;;;;;;;10.93;4.37;;;;;;;21.12;59.84;96084.53;10345645;28;20030;-31
2023/06/12 17:26:37;;;;;;;11.82;4.10;;;;;;;21.08;59.74;96080.38;10338223;28;20044;-31
2023/06/12 17:31:37;;;;;;;10.93;4.38;;;;;;;21.14;60.31;96087.03;10352046;28;20029;-32
2023/06/12 17:36:40;;;;;;;9.53;4.13;;;;;;;21.34;59.30;96095.09;10338181;28;20129;-31
2023/06/12 17:41:40;;;;;;;7.50;3.90;;;;;;;21.41;59.11;96094.94;10350773;28;20559;-32
2023/06/12 17:46:41;;;;;;;11.05;3.92;;;;;;;21.27;58.98;96096.94;10338804;28;20031;-30
2023/06/12 17:51:46;;;;;;;7.20;4.00;;;;;;;21.19;59.60;96101.34;10336349;28;20070;-31
2023/06/12 17:56:48;;;;;;;9.32;4.40;;;;;;;21.13;59.57;96101.47;10340199;28;20026;-33
2023/06/12 18:01:48;;;;;;;11.20;4.72;;;;;;;21.13;59.31;96104.00;10365889;28;20041;-31
2023/06/12 18:06:48;;;;;;;9.13;4.13;;;;;;;21.11;59.77;96110.84;10364561;28;20084;-32
2023/06/12 18:11:50;;;;;;;15.07;4.97;;;;;;;21.12;59.96;96109.13;10350195;28;20533;-31
2023/06/12 18:16:51;;;;;;;6.25;4.07;;;;;;;21.10;59.82;96115.97;10351624;28;20023;-32
2023/06/12 18:21:51;;;;;;;6.65;3.97;;;;;;;21.31;59.87;96126.56;10337456;28;20045;-31
2023/06/12 18:26:52;;;;;;;6.77;3.87;;;;;;;21.41;59.54;96122.94;10350773;28;20030;-31
2023/06/12 18:31:52;;;;;;;7.90;4.17;;;;;;;21.30;59.83;96127.44;10362365;28;20033;-32
2023/06/12 18:36:53;;;;;;;8.98;3.80;;;;;;;21.20;59.63;96128.47;10351970;28;20026;-32
2023/06/12 18:41:53;;;;;;;9.10;3.77;;;;;;;21.14;59.65;96131.13;10364512;28;20122;-32
2023/06/12 18:46:53;;;;;;;8.43;4.40;;;;;;;21.10;59.98;96139.72;10378807;28;20037;-31
2023/06/12 18:51:55;;;;;;;9.13;5.60;;;;;;;21.09;59.65;96140.59;10345222;28;20081;-31
2023/06/12 18:56:56;;;;;;;6.93;4.20;;;;;;;21.09;59.63;96153.31;10330864;28;20285;-32
2023/06/12 19:01:56;;;;;;;7.05;4.13;;;;;;;21.07;59.61;96152.50;10353863;28;20418;-31
2023/06/12 19:06:57;;;;;;;7.03;4.07;;;;;;;21.24;59.74;96149.63;10336461;28;20514;-31
2023/06/12 19:11:57;;;;;;;9.38;4.60;;;;;;;21.37;59.40;96154.44;10347336;28;20095;-30
2023/06/12 19:16:57;;;;;;;14.57;4.60;;;;;;;21.31;59.75;96162.19;10350011;28;20040;-31
2023/06/12 19:21:58;;;;;;;43.97;7.50;;;;;;;21.23;60.39;96171.69;10347273;28;20030;-32
2023/06/12 19:26:58;;;;;;;32.57;7.07;;;;;;;21.21;59.56;96181.06;10326180;28;20376;-32
2023/06/12 19:31:58;;;;;;;39.17;8.03;;;;;;;21.14;59.53;96174.41;10363285;28;20303;-31
2023/06/12 19:36:59;;;;;;;30.43;5.57;;;;;;;21.11;59.54;96182.13;10374189;28;20049;-31
2023/06/12 19:42:00;;;;;;;26.80;5.27;;;;;;;21.09;59.57;96185.56;10341727;28;20045;-31
2023/06/12 19:47:00;;;;;;;17.42;4.97;;;;;;;21.09;59.42;96181.31;10349888;28;20042;-31
2023/06/12 19:52:01;;;;;;;11.70;5.33;;;;;;;21.21;58.72;96190.44;10356978;28;20030;-32
2023/06/12 19:57:03;;;;;;;16.20;5.50;;;;;;;21.38;54.96;96189.22;10390082;28;20496;-32
2023/06/12 20:02:05;;;;;;;22.98;6.13;;;;;;;21.29;56.92;96194.50;10351700;28;20034;-33
2023/06/12 20:07:07;;;;;;;14.57;4.38;;;;;;;21.18;58.01;96193.03;10344690;28;20490;-30
2023/06/12 20:12:08;;;;;;;12.45;5.82;;;;;;;21.12;58.37;96200.75;10333046;28;20454;-31
2023/06/12 20:17:08;;;;;;;15.80;5.05;;;;;;;21.07;58.69;96212.75;10359557;28;20089;-32
2023/06/12 20:22:08;;;;;;;11.90;4.47;;;;;;;21.05;58.68;96220.41;10358665;28;20436;-31
2023/06/12 20:27:09;;;;;;;12.57;4.30;;;;;;;21.05;58.48;96214.50;10341799;28;20417;-31
2023/06/12 20:32:10;;;;;;;11.07;4.10;;;;;;;21.07;58.58;96222.94;10349251;28;20449;-32
2023/06/12 20:37:10;;;;;;;9.70;4.75;;;;;;;21.13;57.22;96228.75;10339519;28;20044;-31
2023/06/12 20:42:10;;;;;;;4.80;3.97;;;;;;;21.31;56.47;96212.31;10382887;28;20044;-32
2023/06/12 20:47:12;;;;;;;11.90;4.73;;;;;;;21.35;56.31;96219.84;10397629;28;20480;-31
2023/06/12 20:52:13;;;;;;;6.72;4.75;;;;;;;21.20;57.50;96209.94;10373042;28;20505;-32
2023/06/12 20:57:14;;;;;;;10.10;5.03;;;;;;;21.11;57.85;96210.13;10392101;28;20374;-31
2023/06/12 21:02:14;;;;;;;8.80;4.05;;;;;;;21.06;58.03;96206.81;10389363;28;20025;-32
2023/06/12 21:07:14;;;;;;;6.23;3.53;;;;;;;21.04;57.98;96203.47;10388113;28;20032;-32
2023/06/12 21:12:15;;;;;;;7.90;3.88;;;;;;;20.97;58.40;96204.44;10370712;28;20038;-31
2023/06/12 21:17:15;;;;;;;9.20;3.60;;;;;;;20.89;58.05;96208.81;10337933;28;20505;-32
2023/06/12 21:22:35;;;;;;;4.03;2.90;;;;;;;20.85;58.04;96207.19;10338963;28;20042;-32
2023/06/12 21:27:35;;;;;;;8.50;3.25;;;;;;;21.02;57.23;96207.75;10330695;28;20293;-31
2023/06/12 21:32:36;;;;;;;4.20;2.88;;;;;;;21.03;56.96;96211.97;10330933;28;20482;-32
2023/06/12 21:37:36;;;;;;;2.72;2.08;;;;;;;20.90;57.26;96213.03;10337839;28;20413;-31
2023/06/12 21:42:37;;;;;;;5.20;2.90;;;;;;;20.84;57.13;96205.50;10338387;28;20034;-31
2023/06/12 21:47:37;;;;;;;2.50;2.30;;;;;;;20.80;57.21;96211.50;10338332;28;20114;-32
2023/06/12 21:52:38;;;;;;;3.78;2.45;;;;;;;20.76;56.97;96212.44;10330192;28;20041;-32
2023/06/12 21:57:38;;;;;;;3.80;2.50;;;;;;;20.73;56.75;96209.91;10349845;28;20061;-32
2023/06/12 22:02:39;;;;;;;2.80;2.60;;;;;;;20.71;56.71;96204.03;10344732;28;20285;-32
2023/06/12 22:07:39;;;;;;;3.35;3.03;;;;;;;20.70;56.40;96212.53;10336828;28;20049;-32
2023/06/12 22:12:40;;;;;;;3.37;3.07;;;;;;;20.78;56.25;96203.06;10339201;28;20039;-32
2023/06/12 22:17:40;;;;;;;3.65;3.30;;;;;;;20.93;55.32;96190.09;10336537;28;20057;-31
2023/06/12 22:22:41;;;;;;;3.30;3.00;;;;;;;20.85;55.56;96194.44;10343268;28;20030;-32
2023/06/12 22:27:41;;;;;;;3.77;3.10;;;;;;;20.74;55.69;96196.34;10328313;28;20161;-31
2023/06/12 22:32:42;;;;;;;3.70;3.40;;;;;;;20.68;55.66;96191.38;10336552;28;20038;-32
2023/06/12 22:37:44;;;;;;;3.50;3.08;;;;;;;20.68;55.74;96190.50;10336186;28;20105;-32
2023/06/12 22:42:47;;;;;;;4.20;3.80;;;;;;;20.65;55.40;96186.31;10344504;28;20030;-31
2023/06/12 22:47:47;;;;;;;4.10;3.70;;;;;;;20.63;55.47;96185.50;10345464;28;20025;-31
2023/06/12 22:52:48;;;;;;;3.40;3.10;;;;;;;20.62;55.39;96180.47;10327649;28;20034;-31
2023/06/12 22:57:48;;;;;;;5.47;3.45;;;;;;;20.57;55.44;96175.41;10345973;28;20064;-31
2023/06/12 23:02:50;;;;;;;4.32;3.45;;;;;;;20.75;54.79;96170.03;10327226;28;20383;-31
2023/06/12 23:07:51;;;;;;;4.68;3.80;;;;;;;20.77;54.44;96165.75;10334898;28;20065;-31
2023/06/12 23:12:51;;;;;;;4.10;3.63;;;;;;;20.66;54.91;96175.28;10328079;28;20065;-31
2023/06/12 23:17:52;;;;;;;4.00;3.47;;;;;;;20.62;55.01;96163.47;10327643;28;20432;-31
2023/06/12 23:22:52;;;;;;;4.40;4.00;;;;;;;20.59;54.75;96167.78;10329959;28;20138;-31